Terminal Aerodrome Forecast
Issued by NWS Tulsa, OK

Home | Current Version | Previous Version | Text Only | Print | Product List | Glossary On
Versions: 1 2 3 4 5 6 7 8 9 10 11 12 13 14 15 16 17 18 19 20
517
FTUS44 KTSA 241120
TAFFSM
TAF
KFSM 241120Z 2412/2512 08003KT P6SM SCT120 BKN250
     FM241500 05006KT P6SM SCT250
     FM250300 35002KT P6SM SCT100 BKN250=

USA.gov is the U.S. government's official web portal to all federal, state and local government web resources and services.